sensor_id;sensor_type;location;lat;lon;timestamp;pressure;altitude;pressure_sealevel;temperature;humidity
10135;BME280;5107;48.850;8.924;2023-02-28T00:00:14;97448.34;;;-2.10;61.24
10135;BME280;5107;48.850;8.924;2023-02-28T00:02:43;97442.28;;;-2.09;60.80
10135;BME280;5107;48.850;8.924;2023-02-28T00:05:13;97440.53;;;-2.09;61.40
10135;BME280;5107;48.850;8.924;2023-02-28T00:07:41;97444.38;;;-2.17;61.77
10135;BME280;5107;48.850;8.924;2023-02-28T00:10:12;97442.63;;;-2.17;61.35
10135;BME280;5107;48.850;8.924;2023-02-28T00:12:39;97446.50;;;-2.25;62.51
10135;BME280;5107;48.850;8.924;2023-02-28T00:15:10;97443.84;;;-2.24;62.59
10135;BME280;5107;48.850;8.924;2023-02-28T00:17:38;97443.09;;;-2.26;62.58
10135;BME280;5107;48.850;8.924;2023-02-28T00:20:07;97442.16;;;-2.25;63.21
10135;BME280;5107;48.850;8.924;2023-02-28T00:22:38;97431.72;;;-2.22;62.75
10135;BME280;5107;48.850;8.924;2023-02-28T00:25:07;97434.69;;;-2.30;63.55
10135;BME280;5107;48.850;8.924;2023-02-28T00:27:34;97432.31;;;-2.34;64.00
10135;BME280;5107;48.850;8.924;2023-02-28T00:30:06;97442.47;;;-2.31;63.67
10135;BME280;5107;48.850;8.924;2023-02-28T00:32:35;97431.97;;;-2.26;64.46
10135;BME280;5107;48.850;8.924;2023-02-28T00:35:03;97434.97;;;-2.36;64.32
10135;BME280;5107;48.850;8.924;2023-02-28T00:37:31;97436.72;;;-2.36;64.32
10135;BME280;5107;48.850;8.924;2023-02-28T00:39:58;97430.66;;;-2.35;65.08
10135;BME280;5107;48.850;8.924;2023-02-28T00:42:26;97439.28;;;-2.36;65.37
10135;BME280;5107;48.850;8.924;2023-02-28T00:44:53;97435.81;;;-2.35;65.66
10135;BME280;5107;48.850;8.924;2023-02-28T00:47:20;97432.41;;;-2.36;66.20
10135;BME280;5107;48.850;8.924;2023-02-28T00:49:49;97436.84;;;-2.39;66.32
10135;BME280;5107;48.850;8.924;2023-02-28T00:52:16;97434.56;;;-2.45;66.23
10135;BME280;5107;48.850;8.924;2023-02-28T00:54:43;97425.94;;;-2.44;66.42
10135;BME280;5107;48.850;8.924;2023-02-28T00:57:10;97430.09;;;-2.42;66.67
10135;BME280;5107;48.850;8.924;2023-02-28T00:59:37;97430.25;;;-2.45;66.93
10135;BME280;5107;48.850;8.924;2023-02-28T01:02:06;97424.28;;;-2.45;67.45
10135;BME280;5107;48.850;8.924;2023-02-28T01:04:33;97432.91;;;-2.46;67.20
10135;BME280;5107;48.850;8.924;2023-02-28T01:07:02;97429.56;;;-2.48;67.46
10135;BME280;5107;48.850;8.924;2023-02-28T01:09:29;97431.22;;;-2.47;68.10
10135;BME280;5107;48.850;8.924;2023-02-28T01:11:57;97426.06;;;-2.47;68.27
10135;BME280;5107;48.850;8.924;2023-02-28T01:14:24;97427.94;;;-2.51;68.80
10135;BME280;5107;48.850;8.924;2023-02-28T01:16:52;97425.53;;;-2.54;68.47
10135;BME280;5107;48.850;8.924;2023-02-28T01:19:19;97420.94;;;-2.47;68.83
10135;BME280;5107;48.850;8.924;2023-02-28T01:21:46;97422.59;;;-2.46;68.75
10135;BME280;5107;48.850;8.924;2023-02-28T01:24:14;97423.56;;;-2.49;69.45
10135;BME280;5107;48.850;8.924;2023-02-28T01:26:41;97430.81;;;-2.57;68.79
10135;BME280;5107;48.850;8.924;2023-02-28T01:29:08;97422.78;;;-2.51;69.71
10135;BME280;5107;48.850;8.924;2023-02-28T01:31:35;97421.50;;;-2.59;69.44
10135;BME280;5107;48.850;8.924;2023-02-28T01:34:03;97431.66;;;-2.56;69.86
10135;BME280;5107;48.850;8.924;2023-02-28T01:36:30;97424.00;;;-2.58;70.43
10135;BME280;5107;48.850;8.924;2023-02-28T01:38:57;97426.66;;;-2.59;70.31
10135;BME280;5107;48.850;8.924;2023-02-28T01:41:30;97429.38;;;-2.62;70.37
10135;BME280;5107;48.850;8.924;2023-02-28T01:44:03;97425.19;;;-2.65;70.78
10135;BME280;5107;48.850;8.924;2023-02-28T01:46:33;97425.19;;;-2.65;70.91
10135;BME280;5107;48.850;8.924;2023-02-28T01:49:06;97415.38;;;-2.76;70.91
10135;BME280;5107;48.850;8.924;2023-02-28T01:51:39;97423.94;;;-2.75;71.31
10135;BME280;5107;48.850;8.924;2023-02-28T01:54:16;97423.38;;;-2.82;72.02
10135;BME280;5107;48.850;8.924;2023-02-28T01:56:49;97423.56;;;-2.85;72.02
10135;BME280;5107;48.850;8.924;2023-02-28T01:59:23;97419.31;;;-2.86;72.10
10135;BME280;5107;48.850;8.924;2023-02-28T02:01:54;97417.34;;;-2.81;72.59
10135;BME280;5107;48.850;8.924;2023-02-28T02:04:24;97407.19;;;-2.84;72.50
10135;BME280;5107;48.850;8.924;2023-02-28T02:06:54;97407.03;;;-2.81;72.67
10135;BME280;5107;48.850;8.924;2023-02-28T02:09:21;97406.00;;;-2.77;72.75
10135;BME280;5107;48.850;8.924;2023-02-28T02:11:50;97410.41;;;-2.79;72.35
10135;BME280;5107;48.850;8.924;2023-02-28T02:14:48;97402.88;;;-2.83;72.61
10135;BME280;5107;48.850;8.924;2023-02-28T02:17:28;97396.13;;;-2.86;73.46
10135;BME280;5107;48.850;8.924;2023-02-28T02:20:46;97398.56;;;-2.83;73.37
10135;BME280;5107;48.850;8.924;2023-02-28T02:26:55;97395.63;;;-2.75;73.86
10135;BME280;5107;48.850;8.924;2023-02-28T02:33:04;97387.00;;;-2.74;73.66
10135;BME280;5107;48.850;8.924;2023-02-28T02:35:41;97386.94;;;-2.73;74.28
10135;BME280;5107;48.850;8.924;2023-02-28T02:38:18;97380.34;;;-2.78;74.25
10135;BME280;5107;48.850;8.924;2023-02-28T02:40:54;97385.69;;;-2.83;74.60
10135;BME280;5107;48.850;8.924;2023-02-28T02:43:28;97384.16;;;-2.87;75.55
10135;BME280;5107;48.850;8.924;2023-02-28T02:45:59;97383.28;;;-2.86;75.57
10135;BME280;5107;48.850;8.924;2023-02-28T02:48:31;97391.00;;;-2.86;75.41
10135;BME280;5107;48.850;8.924;2023-02-28T02:51:06;97385.69;;;-2.83;76.06
10135;BME280;5107;48.850;8.924;2023-02-28T02:53:42;97390.09;;;-2.85;75.93
10135;BME280;5107;48.850;8.924;2023-02-28T02:56:12;97387.53;;;-2.85;76.06
10135;BME280;5107;48.850;8.924;2023-02-28T02:58:42;97390.75;;;-2.81;75.87
10135;BME280;5107;48.850;8.924;2023-02-28T03:01:14;97390.22;;;-2.88;76.39
10135;BME280;5107;48.850;8.924;2023-02-28T03:03:43;97382.44;;;-2.86;76.60
10135;BME280;5107;48.850;8.924;2023-02-28T03:06:15;97391.19;;;-2.90;76.86
10135;BME280;5107;48.850;8.924;2023-02-28T03:08:42;97393.56;;;-2.86;76.73
10135;BME280;5107;48.850;8.924;2023-02-28T03:11:14;97393.00;;;-2.92;76.97
10135;BME280;5107;48.850;8.924;2023-02-28T03:13:59;97395.38;;;-2.88;76.97
10135;BME280;5107;48.850;8.924;2023-02-28T03:17:00;97390.63;;;-2.78;76.79
10135;BME280;5107;48.850;8.924;2023-02-28T03:19:41;97388.56;;;-2.89;77.06
10135;BME280;5107;48.850;8.924;2023-02-28T03:22:28;97382.97;;;-2.80;77.20
10135;BME280;5107;48.850;8.924;2023-02-28T03:25:06;97389.94;;;-2.82;77.39
10135;BME280;5107;48.850;8.924;2023-02-28T03:27:40;97388.56;;;-2.89;77.50
10135;BME280;5107;48.850;8.924;2023-02-28T03:30:14;97391.25;;;-2.92;78.92
10135;BME280;5107;48.850;8.924;2023-02-28T03:32:51;97392.84;;;-2.89;78.18
10135;BME280;5107;48.850;8.924;2023-02-28T03:35:23;97392.22;;;-2.76;78.43
10135;BME280;5107;48.850;8.924;2023-02-28T03:37:59;97392.16;;;-2.74;77.68
10135;BME280;5107;48.850;8.924;2023-02-28T03:40:32;97392.56;;;-2.83;77.51
10135;BME280;5107;48.850;8.924;2023-02-28T03:43:07;97388.59;;;-2.72;77.58
10135;BME280;5107;48.850;8.924;2023-02-28T03:45:37;97383.53;;;-2.73;78.07
10135;BME280;5107;48.850;8.924;2023-02-28T03:48:11;97385.25;;;-2.74;78.00
10135;BME280;5107;48.850;8.924;2023-02-28T03:50:42;97384.47;;;-2.76;78.17
10135;BME280;5107;48.850;8.924;2023-02-28T03:53:14;97381.59;;;-2.68;78.10
10135;BME280;5107;48.850;8.924;2023-02-28T03:55:47;97379.06;;;-2.70;77.96
10135;BME280;5107;48.850;8.924;2023-02-28T03:58:20;97386.72;;;-2.68;77.68
10135;BME280;5107;48.850;8.924;2023-02-28T04:00:56;97379.53;;;-2.61;77.98
10135;BME280;5107;48.850;8.924;2023-02-28T04:03:26;97379.75;;;-2.66;78.20
10135;BME280;5107;48.850;8.924;2023-02-28T04:05:54;97386.03;;;-2.72;78.71
10135;BME280;5107;48.850;8.924;2023-02-28T04:08:23;97386.72;;;-2.68;78.41
10135;BME280;5107;48.850;8.924;2023-02-28T04:10:54;97386.63;;;-2.67;78.53
10135;BME280;5107;48.850;8.924;2023-02-28T04:13:23;97390.75;;;-2.62;78.78
10135;BME280;5107;48.850;8.924;2023-02-28T04:15:50;97387.28;;;-2.61;78.31
10135;BME280;5107;48.850;8.924;2023-02-28T04:18:17;97389.69;;;-2.58;78.27
10135;BME280;5107;48.850;8.924;2023-02-28T04:20:44;97393.94;;;-2.57;78.29
10135;BME280;5107;48.850;8.924;2023-02-28T04:23:11;97391.50;;;-2.60;78.28
10135;BME280;5107;48.850;8.924;2023-02-28T04:25:39;97383.63;;;-2.57;78.64
10135;BME280;5107;48.850;8.924;2023-02-28T04:28:07;97390.31;;;-2.53;78.31
10135;BME280;5107;48.850;8.924;2023-02-28T04:30:35;97386.59;;;-2.48;78.36
10135;BME280;5107;48.850;8.924;2023-02-28T04:33:03;97391.69;;;-2.46;78.45
10135;BME280;5107;48.850;8.924;2023-02-28T04:35:30;97390.63;;;-2.42;78.16
10135;BME280;5107;48.850;8.924;2023-02-28T04:37:58;97388.22;;;-2.45;78.33
10135;BME280;5107;48.850;8.924;2023-02-28T04:40:25;97373.59;;;-2.45;78.26
10135;BME280;5107;48.850;8.924;2023-02-28T04:42:53;97381.09;;;-2.40;78.81
10135;BME280;5107;48.850;8.924;2023-02-28T04:45:20;97381.69;;;-2.52;78.94
10135;BME280;5107;48.850;8.924;2023-02-28T04:47:47;97382.22;;;-2.46;79.26
10135;BME280;5107;48.850;8.924;2023-02-28T04:50:14;97379.72;;;-2.47;78.74
10135;BME280;5107;48.850;8.924;2023-02-28T04:52:41;97382.28;;;-2.47;79.42
10135;BME280;5107;48.850;8.924;2023-02-28T04:55:09;97379.84;;;-2.50;79.01
10135;BME280;5107;48.850;8.924;2023-02-28T04:57:36;97387.38;;;-2.46;79.00
10135;BME280;5107;48.850;8.924;2023-02-28T05:00:07;97384.88;;;-2.47;79.57
10135;BME280;5107;48.850;8.924;2023-02-28T05:02:37;97378.75;;;-2.45;79.14
10135;BME280;5107;48.850;8.924;2023-02-28T05:05:05;97385.69;;;-2.47;78.77
10135;BME280;5107;48.850;8.924;2023-02-28T05:07:33;97391.09;;;-2.51;79.79
10135;BME280;5107;48.850;8.924;2023-02-28T05:10:00;97391.63;;;-2.45;79.35
10135;BME280;5107;48.850;8.924;2023-02-28T05:12:27;97391.56;;;-2.43;79.31
10135;BME280;5107;48.850;8.924;2023-02-28T05:14:54;97394.03;;;-2.42;79.05
10135;BME280;5107;48.850;8.924;2023-02-28T05:17:23;97385.25;;;-2.38;78.99
10135;BME280;5107;48.850;8.924;2023-02-28T05:19:50;97382.75;;;-2.39;78.78
10135;BME280;5107;48.850;8.924;2023-02-28T05:22:17;97391.56;;;-2.43;78.75
10135;BME280;5107;48.850;8.924;2023-02-28T05:24:44;97386.47;;;-2.45;79.19
10135;BME280;5107;48.850;8.924;2023-02-28T05:27:11;97383.66;;;-2.40;78.61
10135;BME280;5107;48.850;8.924;2023-02-28T05:29:38;97387.97;;;-2.41;78.98
10135;BME280;5107;48.850;8.924;2023-02-28T05:32:09;97387.31;;;-2.44;78.60
10135;BME280;5107;48.850;8.924;2023-02-28T05:34:38;97381.78;;;-2.37;78.74
10135;BME280;5107;48.850;8.924;2023-02-28T05:37:07;97388.50;;;-2.34;78.52
10135;BME280;5107;48.850;8.924;2023-02-28T05:39:38;97386.63;;;-2.31;78.67
10135;BME280;5107;48.850;8.924;2023-02-28T05:42:05;97388.31;;;-2.30;78.20
10135;BME280;5107;48.850;8.924;2023-02-28T05:44:32;97385.66;;;-2.28;78.61
10135;BME280;5107;48.850;8.924;2023-02-28T05:46:59;97386.50;;;-2.27;78.09
10135;BME280;5107;48.850;8.924;2023-02-28T05:49:28;97381.41;;;-2.29;78.20
10135;BME280;5107;48.850;8.924;2023-02-28T05:51:56;97389.13;;;-2.29;78.27
10135;BME280;5107;48.850;8.924;2023-02-28T05:54:23;97385.34;;;-2.22;78.04
10135;BME280;5107;48.850;8.924;2023-02-28T05:56:50;97383.38;;;-2.17;77.34
10135;BME280;5107;48.850;8.924;2023-02-28T05:59:17;97392.03;;;-2.18;76.69
10135;BME280;5107;48.850;8.924;2023-02-28T06:01:47;97386.94;;;-2.19;76.52
10135;BME280;5107;48.850;8.924;2023-02-28T06:04:16;97385.28;;;-2.20;76.59
10135;BME280;5107;48.850;8.924;2023-02-28T06:06:48;97391.09;;;-2.17;76.50
10135;BME280;5107;48.850;8.924;2023-02-28T06:09:17;97389.47;;;-2.18;76.65
10135;BME280;5107;48.850;8.924;2023-02-28T06:11:44;97383.38;;;-2.17;76.28
10135;BME280;5107;48.850;8.924;2023-02-28T06:14:15;97390.19;;;-2.16;76.58
10135;BME280;5107;48.850;8.924;2023-02-28T06:16:43;97390.06;;;-2.13;76.91
10135;BME280;5107;48.850;8.924;2023-02-28T06:19:11;97381.41;;;-2.12;76.51
10135;BME280;5107;48.850;8.924;2023-02-28T06:21:38;97392.38;;;-2.08;76.73
10135;BME280;5107;48.850;8.924;2023-02-28T06:24:08;97403.78;;;-2.12;76.31
10135;BME280;5107;48.850;8.924;2023-02-28T06:26:41;97395.53;;;-2.19;75.88
10135;BME280;5107;48.850;8.924;2023-02-28T06:29:08;97397.78;;;-2.13;75.75
10135;BME280;5107;48.850;8.924;2023-02-28T06:31:35;97404.53;;;-2.10;75.98
10135;BME280;5107;48.850;8.924;2023-02-28T06:34:04;97399.47;;;-2.12;75.54
10135;BME280;5107;48.850;8.924;2023-02-28T06:36:31;97410.53;;;-2.10;76.31
10135;BME280;5107;48.850;8.924;2023-02-28T06:39:00;97418.25;;;-2.10;76.25
10135;BME280;5107;48.850;8.924;2023-02-28T06:41:29;97416.44;;;-2.08;76.01
10135;BME280;5107;48.850;8.924;2023-02-28T06:43:59;97418.88;;;-2.05;75.93
10135;BME280;5107;48.850;8.924;2023-02-28T06:46:26;97418.16;;;-2.08;75.56
10135;BME280;5107;48.850;8.924;2023-02-28T06:48:56;97424.31;;;-2.11;76.08
10135;BME280;5107;48.850;8.924;2023-02-28T06:51:23;97415.69;;;-2.10;76.10
10135;BME280;5107;48.850;8.924;2023-02-28T06:53:50;97421.75;;;-2.11;75.44
10135;BME280;5107;48.850;8.924;2023-02-28T06:56:21;97426.91;;;-2.11;76.25
10135;BME280;5107;48.850;8.924;2023-02-28T06:58:49;97423.50;;;-2.11;75.62
10135;BME280;5107;48.850;8.924;2023-02-28T07:01:23;97432.78;;;-2.09;75.96
10135;BME280;5107;48.850;8.924;2023-02-28T07:03:50;97435.94;;;-2.02;76.13
10135;BME280;5107;48.850;8.924;2023-02-28T07:06:19;97436.91;;;-2.05;75.53
10135;BME280;5107;48.850;8.924;2023-02-28T07:08:48;97437.59;;;-2.01;75.92
10135;BME280;5107;48.850;8.924;2023-02-28T07:11:16;97435.81;;;-2.01;75.44
10135;BME280;5107;48.850;8.924;2023-02-28T07:13:43;97439.09;;;-1.97;75.33
10135;BME280;5107;48.850;8.924;2023-02-28T07:16:12;97435.56;;;-1.95;75.55
10135;BME280;5107;48.850;8.924;2023-02-28T07:18:42;97444.66;;;-1.87;75.72
10135;BME280;5107;48.850;8.924;2023-02-28T07:21:11;97449.22;;;-1.93;75.11
10135;BME280;5107;48.850;8.924;2023-02-28T07:23:39;97446.47;;;-1.89;75.09
10135;BME280;5107;48.850;8.924;2023-02-28T07:26:12;97445.25;;;-1.82;75.38
10135;BME280;5107;48.850;8.924;2023-02-28T07:28:41;97452.59;;;-1.75;75.23
10135;BME280;5107;48.850;8.924;2023-02-28T07:31:09;97445.69;;;-1.74;74.63
10135;BME280;5107;48.850;8.924;2023-02-28T07:33:41;97454.28;;;-1.74;74.58
10135;BME280;5107;48.850;8.924;2023-02-28T07:36:11;97452.22;;;-1.67;74.40
10135;BME280;5107;48.850;8.924;2023-02-28T07:38:45;97454.13;;;-1.71;73.85
10135;BME280;5107;48.850;8.924;2023-02-28T07:41:14;97442.84;;;-1.68;74.62
10135;BME280;5107;48.850;8.924;2023-02-28T07:43:42;97452.84;;;-1.62;74.24
10135;BME280;5107;48.850;8.924;2023-02-28T07:46:12;97449.34;;;-1.61;73.82
10135;BME280;5107;48.850;8.924;2023-02-28T07:48:42;97454.50;;;-1.61;74.35
10135;BME280;5107;48.850;8.924;2023-02-28T07:51:09;97450.19;;;-1.61;73.66
10135;BME280;5107;48.850;8.924;2023-02-28T07:53:38;97450.13;;;-1.59;73.94
10135;BME280;5107;48.850;8.924;2023-02-28T07:56:07;97444.97;;;-1.59;74.06
10135;BME280;5107;48.850;8.924;2023-02-28T07:58:34;97450.19;;;-1.61;74.08
10135;BME280;5107;48.850;8.924;2023-02-28T08:01:06;97454.91;;;-1.69;73.81
10135;BME280;5107;48.850;8.924;2023-02-28T08:03:33;97448.97;;;-1.71;74.08
10135;BME280;5107;48.850;8.924;2023-02-28T08:06:02;97454.91;;;-1.69;74.33
10135;BME280;5107;48.850;8.924;2023-02-28T08:08:29;97452.91;;;-1.64;74.06
10135;BME280;5107;48.850;8.924;2023-02-28T08:10:59;97457.94;;;-1.61;73.36
10135;BME280;5107;48.850;8.924;2023-02-28T08:13:27;97463.00;;;-1.59;73.22
10135;BME280;5107;48.850;8.924;2023-02-28T08:15:55;97461.72;;;-1.68;73.92
10135;BME280;5107;48.850;8.924;2023-02-28T08:18:23;97464.38;;;-1.69;73.51
10135;BME280;5107;48.850;8.924;2023-02-28T08:20:50;97467.94;;;-1.72;73.31
10135;BME280;5107;48.850;8.924;2023-02-28T08:23:19;97466.97;;;-1.69;73.68
10135;BME280;5107;48.850;8.924;2023-02-28T08:25:53;97468.31;;;-1.62;73.98
10135;BME280;5107;48.850;8.924;2023-02-28T08:28:20;97465.66;;;-1.61;73.51
10135;BME280;5107;48.850;8.924;2023-02-28T08:30:47;97473.34;;;-1.59;73.67
10135;BME280;5107;48.850;8.924;2023-02-28T08:33:15;97469.22;;;-1.46;74.52
10135;BME280;5107;48.850;8.924;2023-02-28T08:35:42;97472.63;;;-1.45;72.88
10135;BME280;5107;48.850;8.924;2023-02-28T08:38:09;97472.69;;;-1.47;73.40
10135;BME280;5107;48.850;8.924;2023-02-28T08:40:38;97471.78;;;-1.46;73.89
10135;BME280;5107;48.850;8.924;2023-02-28T08:43:05;97474.91;;;-1.39;73.45
10135;BME280;5107;48.850;8.924;2023-02-28T08:45:32;97473.97;;;-1.38;72.68
10135;BME280;5107;48.850;8.924;2023-02-28T08:47:59;97485.97;;;-1.37;72.93
10135;BME280;5107;48.850;8.924;2023-02-28T08:50:28;97476.72;;;-1.41;72.63
10135;BME280;5107;48.850;8.924;2023-02-28T08:52:55;97480.31;;;-1.44;72.87
10135;BME280;5107;48.850;8.924;2023-02-28T08:55:23;97478.25;;;-1.37;72.81
10135;BME280;5107;48.850;8.924;2023-02-28T08:57:51;97481.41;;;-1.32;72.93
10135;BME280;5107;48.850;8.924;2023-02-28T09:00:22;97488.25;;;-1.31;72.10
10135;BME280;5107;48.850;8.924;2023-02-28T09:02:49;97480.56;;;-1.33;72.31
10135;BME280;5107;48.850;8.924;2023-02-28T09:05:16;97484.59;;;-1.27;72.00
10135;BME280;5107;48.850;8.924;2023-02-28T09:07:43;97477.53;;;-1.24;72.04
10135;BME280;5107;48.850;8.924;2023-02-28T09:10:11;97486.28;;;-1.26;71.87
10135;BME280;5107;48.850;8.924;2023-02-28T09:12:38;97487.91;;;-1.25;72.36
10135;BME280;5107;48.850;8.924;2023-02-28T09:15:08;97480.19;;;-1.25;71.72
10135;BME280;5107;48.850;8.924;2023-02-28T09:17:35;97485.06;;;-1.19;72.32
10135;BME280;5107;48.850;8.924;2023-02-28T09:20:03;97490.72;;;-1.12;71.93
10135;BME280;5107;48.850;8.924;2023-02-28T09:22:31;97487.31;;;-1.13;71.39
10135;BME280;5107;48.850;8.924;2023-02-28T09:24:58;97494.06;;;-1.10;71.87
10135;BME280;5107;48.850;8.924;2023-02-28T09:27:25;97487.50;;;-1.00;71.29
10135;BME280;5107;48.850;8.924;2023-02-28T09:29:52;97484.38;;;-0.90;70.82
10135;BME280;5107;48.850;8.924;2023-02-28T09:32:22;97488.53;;;-0.87;71.02
10135;BME280;5107;48.850;8.924;2023-02-28T09:34:55;97492.63;;;-0.83;70.21
10135;BME280;5107;48.850;8.924;2023-02-28T09:37:24;97493.22;;;-0.78;70.27
10135;BME280;5107;48.850;8.924;2023-02-28T09:39:55;97498.06;;;-0.72;70.25
10135;BME280;5107;48.850;8.924;2023-02-28T09:42:31;97496.16;;;-0.68;70.22
10135;BME280;5107;48.850;8.924;2023-02-28T09:45:02;97498.34;;;-0.61;70.08
10135;BME280;5107;48.850;8.924;2023-02-28T09:47:36;97496.59;;;-0.60;69.67
10135;BME280;5107;48.850;8.924;2023-02-28T09:50:17;97498.25;;;-0.59;69.28
10135;BME280;5107;48.850;8.924;2023-02-28T09:52:49;97502.59;;;-0.60;69.51
10135;BME280;5107;48.850;8.924;2023-02-28T09:55:22;97495.41;;;-0.55;68.53
10135;BME280;5107;48.850;8.924;2023-02-28T09:57:54;97492.41;;;-0.63;68.47
10135;BME280;5107;48.850;8.924;2023-02-28T10:00:32;97495.25;;;-0.52;68.35
10135;BME280;5107;48.850;8.924;2023-02-28T10:03:16;97490.25;;;-0.55;67.89
10135;BME280;5107;48.850;8.924;2023-02-28T10:05:51;97502.09;;;-0.51;67.45
10135;BME280;5107;48.850;8.924;2023-02-28T10:08:25;97506.19;;;-0.47;67.45
10135;BME280;5107;48.850;8.924;2023-02-28T10:10:57;97503.03;;;-0.36;67.21
10135;BME280;5107;48.850;8.924;2023-02-28T10:13:32;97501.44;;;-0.39;67.18
10135;BME280;5107;48.850;8.924;2023-02-28T10:16:05;97508.94;;;-0.34;66.81
10135;BME280;5107;48.850;8.924;2023-02-28T10:18:43;97497.44;;;-0.28;67.03
10135;BME280;5107;48.850;8.924;2023-02-28T10:21:23;97511.19;;;-0.12;67.21
10135;BME280;5107;48.850;8.924;2023-02-28T10:23:58;97514.44;;;-0.09;66.32
10135;BME280;5107;48.850;8.924;2023-02-28T10:26:26;97522.09;;;-0.07;66.02
10135;BME280;5107;48.850;8.924;2023-02-28T10:28:58;97516.63;;;-0.01;66.08
10135;BME280;5107;48.850;8.924;2023-02-28T10:31:25;97522.69;;;-0.02;66.45
10135;BME280;5107;48.850;8.924;2023-02-28T10:33:54;97528.28;;;0.06;65.89
10135;BME280;5107;48.850;8.924;2023-02-28T10:36:22;97518.59;;;-0.06;64.93
10135;BME280;5107;48.850;8.924;2023-02-28T10:38:49;97524.38;;;-0.01;65.25
10135;BME280;5107;48.850;8.924;2023-02-28T10:41:28;97522.69;;;0.14;65.54
10135;BME280;5107;48.850;8.924;2023-02-28T10:44:20;97521.91;;;0.27;64.88
10135;BME280;5107;48.850;8.924;2023-02-28T10:46:48;97519.47;;;0.40;64.63
10135;BME280;5107;48.850;8.924;2023-02-28T10:49:20;97522.00;;;0.56;63.30
10135;BME280;5107;48.850;8.924;2023-02-28T10:51:54;97516.84;;;0.70;62.43
10135;BME280;5107;48.850;8.924;2023-02-28T10:54:28;97520.41;;;0.83;61.97
10135;BME280;5107;48.850;8.924;2023-02-28T10:57:17;97516.84;;;1.00;61.68
10135;BME280;5107;48.850;8.924;2023-02-28T10:59:45;97514.50;;;1.09;60.85
10135;BME280;5107;48.850;8.924;2023-02-28T11:02:33;97514.16;;;1.16;60.39
10135;BME280;5107;48.850;8.924;2023-02-28T11:05:02;97512.78;;;1.24;60.84
10135;BME280;5107;48.850;8.924;2023-02-28T11:07:51;97514.81;;;1.33;59.59
10135;BME280;5107;48.850;8.924;2023-02-28T11:10:22;97521.34;;;1.53;60.08
10135;BME280;5107;48.850;8.924;2023-02-28T11:12:55;97507.56;;;1.67;60.15
10135;BME280;5107;48.850;8.924;2023-02-28T11:15:26;97511.13;;;1.78;60.21
10135;BME280;5107;48.850;8.924;2023-02-28T11:17:56;97507.91;;;2.02;60.22
10135;BME280;5107;48.850;8.924;2023-02-28T11:20:29;97508.81;;;2.15;58.64
10135;BME280;5107;48.850;8.924;2023-02-28T11:23:00;97506.34;;;2.26;57.45
10135;BME280;5107;48.850;8.924;2023-02-28T11:25:31;97501.41;;;2.36;57.05
10135;BME280;5107;48.850;8.924;2023-02-28T11:28:06;97502.88;;;2.13;57.51
10135;BME280;5107;48.850;8.924;2023-02-28T11:31:02;97505.22;;;2.03;57.42
10135;BME280;5107;48.850;8.924;2023-02-28T11:33:31;97508.66;;;2.04;57.48
10135;BME280;5107;48.850;8.924;2023-02-28T11:36:04;97507.81;;;2.03;57.80
10135;BME280;5107;48.850;8.924;2023-02-28T11:38:36;97510.59;;;2.14;57.99
10135;BME280;5107;48.850;8.924;2023-02-28T11:41:40;97504.91;;;2.22;57.38
10135;BME280;5107;48.850;8.924;2023-02-28T11:44:27;97499.22;;;2.29;57.56
10135;BME280;5107;48.850;8.924;2023-02-28T11:47:02;97496.09;;;2.24;56.49
10135;BME280;5107;48.850;8.924;2023-02-28T11:49:37;97492.44;;;2.27;57.22
10135;BME280;5107;48.850;8.924;2023-02-28T11:52:21;97484.63;;;2.41;57.10
10135;BME280;5107;48.850;8.924;2023-02-28T11:55:02;97489.66;;;2.30;56.24
10135;BME280;5107;48.850;8.924;2023-02-28T11:58:01;97497.50;;;2.16;56.83
10135;BME280;5107;48.850;8.924;2023-02-28T12:00:44;97490.91;;;2.37;57.93
10135;BME280;5107;48.850;8.924;2023-02-28T12:03:27;97493.19;;;2.81;56.89
10135;BME280;5107;48.850;8.924;2023-02-28T12:06:12;97485.94;;;2.99;55.62
10135;BME280;5107;48.850;8.924;2023-02-28T12:08:53;97484.78;;;3.03;55.67
10135;BME280;5107;48.850;8.924;2023-02-28T12:11:36;97489.88;;;3.17;54.68
10135;BME280;5107;48.850;8.924;2023-02-28T12:14:33;97482.72;;;2.83;54.85
10135;BME280;5107;48.850;8.924;2023-02-28T12:17:17;97483.84;;;2.91;55.55
10135;BME280;5107;48.850;8.924;2023-02-28T12:19:56;97482.50;;;2.98;54.94
10135;BME280;5107;48.850;8.924;2023-02-28T12:22:31;97474.47;;;3.01;55.37
10135;BME280;5107;48.850;8.924;2023-02-28T12:28:03;97480.50;;;3.27;54.59
10135;BME280;5107;48.850;8.924;2023-02-28T12:30:34;97474.97;;;3.57;53.46
10135;BME280;5107;48.850;8.924;2023-02-28T12:33:08;97473.13;;;3.70;53.05
10135;BME280;5107;48.850;8.924;2023-02-28T12:35:43;97465.91;;;3.87;53.07
10135;BME280;5107;48.850;8.924;2023-02-28T12:38:18;97463.72;;;3.93;51.28
10135;BME280;5107;48.850;8.924;2023-02-28T12:40:49;97460.94;;;3.84;52.26
10135;BME280;5107;48.850;8.924;2023-02-28T12:43:27;97452.22;;;3.96;52.20
10135;BME280;5107;48.850;8.924;2023-02-28T12:45:59;97451.41;;;3.95;52.55
10135;BME280;5107;48.850;8.924;2023-02-28T12:48:31;97456.44;;;3.86;52.75
10135;BME280;5107;48.850;8.924;2023-02-28T12:51:03;97448.97;;;3.81;52.71
10135;BME280;5107;48.850;8.924;2023-02-28T12:53:43;97450.28;;;3.63;53.00
10135;BME280;5107;48.850;8.924;2023-02-28T12:56:20;97444.53;;;3.94;53.40
10135;BME280;5107;48.850;8.924;2023-02-28T12:58:54;97448.53;;;4.46;51.98
10135;BME280;5107;48.850;8.924;2023-02-28T13:01:46;97443.84;;;4.51;51.74
10135;BME280;5107;48.850;8.924;2023-02-28T13:04:55;97445.50;;;4.63;50.54
10135;BME280;5107;48.850;8.924;2023-02-28T13:08:03;97454.69;;;4.45;50.37
10135;BME280;5107;48.850;8.924;2023-02-28T13:10:43;97445.94;;;4.46;50.09
10135;BME280;5107;48.850;8.924;2023-02-28T13:13:23;97443.19;;;4.82;50.68
10135;BME280;5107;48.850;8.924;2023-02-28T13:16:04;97441.91;;;4.99;49.42
10135;BME280;5107;48.850;8.924;2023-02-28T13:18:35;97434.75;;;4.79;49.08
10135;BME280;5107;48.850;8.924;2023-02-28T13:21:05;97443.22;;;5.05;49.39
10135;BME280;5107;48.850;8.924;2023-02-28T13:24:02;97438.03;;;5.27;48.91
10135;BME280;5107;48.850;8.924;2023-02-28T13:29:53;97438.75;;;5.94;47.92
10135;BME280;5107;48.850;8.924;2023-02-28T13:32:36;97447.69;;;5.81;47.20
10135;BME280;5107;48.850;8.924;2023-02-28T13:35:36;97438.34;;;5.56;47.57
10135;BME280;5107;48.850;8.924;2023-02-28T13:38:33;97432.91;;;5.48;47.73
10135;BME280;5107;48.850;8.924;2023-02-28T13:44:18;97422.72;;;6.10;46.82
10135;BME280;5107;48.850;8.924;2023-02-28T13:47:23;97444.41;;;5.56;48.20
10135;BME280;5107;48.850;8.924;2023-02-28T13:49:52;97440.88;;;5.35;47.59
10135;BME280;5107;48.850;8.924;2023-02-28T13:52:23;97446.91;;;5.24;47.70
10135;BME280;5107;48.850;8.924;2023-02-28T13:55:24;97438.94;;;5.48;47.55